createdAt,value
2023-04-21T00:00:07.727Z,6.43
2023-04-21T00:02:39.601Z,5.40
2023-04-21T00:05:10.515Z,6.10
2023-04-21T00:07:39.480Z,5.40
2023-04-21T00:10:08.611Z,6.47
2023-04-21T00:12:36.885Z,6.00
2023-04-21T00:15:08.912Z,5.60
2023-04-21T00:17:37.050Z,5.90
2023-04-21T00:20:07.181Z,5.57
2023-04-21T00:22:36.678Z,5.40
2023-04-21T00:25:05.183Z,5.63
2023-04-21T00:27:33.256Z,5.87
2023-04-21T00:30:01.347Z,5.40
2023-04-21T00:32:29.440Z,5.40
2023-04-21T00:34:57.591Z,6.17
2023-04-21T00:37:25.861Z,6.50
2023-04-21T00:39:55.357Z,5.80
2023-04-21T00:42:23.500Z,6.13
2023-04-21T00:44:52.261Z,5.57
2023-04-21T00:47:20.444Z,6.57
2023-04-21T00:49:48.639Z,5.73
2023-04-21T00:52:16.682Z,5.80
2023-04-21T00:54:44.884Z,7.07
2023-04-21T00:57:14.328Z,8.43
2023-04-21T00:59:43.466Z,6.17
2023-04-21T01:02:11.697Z,6.53
2023-04-21T01:04:40.328Z,6.10
2023-04-21T01:07:10.122Z,5.80
2023-04-21T01:09:38.285Z,7.30
2023-04-21T01:12:07.015Z,6.07
2023-04-21T01:14:36.489Z,6.60
2023-04-21T01:17:05.498Z,7.03
2023-04-21T01:19:34.370Z,6.30
2023-04-21T01:22:04.422Z,7.03
2023-04-21T01:24:39.374Z,6.43
2023-04-21T01:27:10.858Z,7.30
2023-04-21T01:29:39.137Z,6.60
2023-04-21T01:32:08.244Z,7.00
2023-04-21T01:34:36.384Z,7.40
2023-04-21T01:37:08.210Z,7.70
2023-04-21T01:39:38.723Z,6.73
2023-04-21T01:42:06.874Z,6.70
2023-04-21T01:44:34.981Z,8.23
2023-04-21T01:47:03.004Z,6.60
2023-04-21T01:49:31.254Z,6.33
2023-04-21T01:51:59.391Z,6.47
2023-04-21T01:54:37.559Z,6.53
2023-04-21T01:57:06.813Z,7.33
2023-04-21T01:59:35.052Z,6.40
2023-04-21T02:02:04.402Z,6.60
2023-04-21T02:04:32.783Z,7.60
2023-04-21T02:07:01.132Z,7.57
2023-04-21T02:09:31.230Z,7.03
2023-04-21T02:11:59.469Z,7.20
2023-04-21T02:14:30.161Z,6.40
2023-04-21T02:16:58.296Z,8.30
2023-04-21T02:19:26.489Z,6.70
2023-04-21T02:21:54.566Z,8.63
2023-04-21T02:24:22.651Z,11.20
2023-04-21T02:26:52.067Z,6.83
2023-04-21T02:29:20.326Z,7.37
2023-04-21T02:31:59.294Z,7.03
2023-04-21T02:34:33.593Z,7.90
2023-04-21T02:37:01.625Z,7.30
2023-04-21T02:39:29.652Z,8.00
2023-04-21T02:41:59.544Z,7.33
2023-04-21T02:44:27.772Z,6.70
2023-04-21T02:46:56.009Z,8.17
2023-04-21T02:49:24.212Z,7.20
2023-04-21T02:51:52.339Z,7.70
2023-04-21T02:54:20.525Z,7.67
2023-04-21T02:56:48.744Z,7.50
2023-04-21T02:59:18.548Z,8.20
2023-04-21T03:01:49.196Z,7.80
2023-04-21T03:04:17.443Z,7.40
2023-04-21T03:06:45.743Z,8.00
2023-04-21T03:09:13.877Z,9.07
2023-04-21T03:11:42.127Z,7.63
2023-04-21T03:14:10.204Z,8.60
2023-04-21T03:16:40.039Z,7.70
2023-04-21T03:19:08.125Z,8.00
2023-04-21T03:21:39.058Z,9.13
2023-04-21T03:24:07.765Z,8.63
2023-04-21T03:26:40.045Z,7.70
2023-04-21T03:29:08.216Z,10.63
2023-04-21T03:31:36.327Z,8.63
2023-04-21T03:34:05.825Z,13.10
2023-04-21T03:36:33.920Z,9.37
2023-04-21T03:39:12.701Z,8.53
2023-04-21T03:41:47.726Z,9.00
2023-04-21T03:44:15.865Z,9.50
2023-04-21T03:46:44.030Z,9.27
2023-04-21T03:49:13.618Z,8.63
2023-04-21T03:51:49.246Z,10.63
2023-04-21T03:54:17.280Z,9.27
2023-04-21T03:56:45.383Z,9.03
2023-04-21T03:59:13.454Z,10.27
2023-04-21T04:01:42.357Z,8.33
2023-04-21T04:04:10.683Z,10.00
2023-04-21T04:06:41.030Z,9.10
2023-04-21T04:09:17.986Z,8.40
2023-04-21T04:11:46.230Z,8.50
2023-04-21T04:14:14.313Z,9.37
2023-04-21T04:16:42.575Z,10.43
2023-04-21T04:19:10.964Z,8.90
2023-04-21T04:21:40.577Z,10.20
2023-04-21T04:24:08.984Z,10.77
2023-04-21T04:26:38.506Z,8.13
2023-04-21T04:29:10.609Z,12.93
2023-04-21T04:31:39.044Z,9.90
2023-04-21T04:34:07.115Z,9.30
2023-04-21T04:36:35.297Z,8.13
2023-04-21T04:39:06.327Z,11.20
2023-04-21T04:41:36.477Z,9.20
2023-04-21T04:44:05.250Z,9.10
2023-04-21T04:46:33.635Z,9.00
2023-04-21T04:49:01.922Z,9.03
2023-04-21T04:51:30.352Z,10.23
2023-04-21T04:53:58.454Z,9.90
2023-04-21T04:56:27.926Z,9.10
2023-04-21T04:58:56.102Z,8.10
2023-04-21T05:01:37.525Z,10.00
2023-04-21T05:04:06.351Z,10.20
2023-04-21T05:06:34.724Z,9.83
2023-04-21T05:09:02.826Z,8.90
2023-04-21T05:11:32.364Z,8.90
2023-04-21T05:14:00.437Z,10.70
2023-04-21T05:16:28.537Z,9.87
2023-04-21T05:18:56.727Z,9.80
2023-04-21T05:21:27.748Z,8.50
2023-04-21T05:23:56.054Z,9.27
2023-04-21T05:26:24.206Z,10.00
2023-04-21T05:28:53.805Z,9.60
2023-04-21T05:31:21.919Z,9.50
2023-04-21T05:33:50.387Z,8.80
2023-04-21T05:36:20.218Z,9.87
2023-04-21T05:38:48.246Z,9.33
2023-04-21T05:41:16.353Z,8.57
2023-04-21T05:43:44.491Z,8.60
2023-04-21T05:46:14.068Z,8.90
2023-04-21T05:48:42.670Z,9.40
2023-04-21T05:51:11.610Z,10.40
2023-04-21T05:53:39.742Z,11.90
2023-04-21T05:56:09.684Z,8.47
2023-04-21T05:58:37.760Z,9.87
2023-04-21T06:01:06.333Z,9.27
2023-04-21T06:03:36.026Z,8.83
2023-04-21T06:06:07.848Z,10.53
2023-04-21T06:08:36.014Z,9.83
2023-04-21T06:11:08.645Z,10.97
2023-04-21T06:13:38.590Z,11.20
2023-04-21T06:16:07.742Z,9.77
2023-04-21T06:18:37.254Z,9.40
2023-04-21T06:21:08.681Z,9.43
2023-04-21T06:23:39.534Z,10.87
2023-04-21T06:26:08.039Z,11.30
2023-04-21T06:28:36.737Z,10.40
2023-04-21T06:31:08.504Z,10.73
2023-04-21T06:33:38.581Z,10.17
2023-04-21T06:36:09.755Z,11.13
2023-04-21T06:38:40.034Z,10.50
2023-04-21T06:41:08.156Z,9.90
2023-04-21T06:43:36.677Z,10.10
2023-04-21T06:46:04.817Z,12.80
2023-04-21T06:48:32.987Z,11.20
2023-04-21T06:51:02.835Z,9.77
2023-04-21T06:53:31.024Z,10.03
2023-04-21T06:55:59.196Z,12.27
2023-04-21T06:58:27.358Z,10.37
2023-04-21T07:00:55.515Z,11.53
2023-04-21T07:03:23.690Z,10.73
2023-04-21T07:05:52.029Z,10.40
2023-04-21T07:08:21.484Z,9.83
2023-04-21T07:10:49.633Z,10.03
2023-04-21T07:13:20.558Z,10.23
2023-04-21T07:15:48.650Z,10.77
2023-04-21T07:18:16.792Z,12.43
2023-04-21T07:20:44.938Z,11.37
2023-04-21T07:23:14.791Z,9.27
2023-04-21T07:25:44.367Z,12.20
2023-04-21T07:28:15.143Z,8.87
2023-04-21T07:30:43.308Z,9.70
2023-04-21T07:33:11.492Z,10.23
2023-04-21T07:35:39.627Z,9.60
2023-04-21T07:38:07.716Z,11.27
2023-04-21T07:40:35.821Z,9.67
2023-04-21T07:43:05.360Z,10.37
2023-04-21T07:45:33.425Z,13.47
2023-04-21T07:48:01.607Z,11.80
2023-04-21T07:50:29.731Z,10.07
2023-04-21T07:52:57.820Z,10.30
2023-04-21T07:55:25.890Z,10.97
2023-04-21T07:57:54.183Z,10.97
2023-04-21T08:00:23.771Z,11.00
2023-04-21T08:02:54.304Z,11.70
2023-04-21T08:05:22.549Z,10.63
2023-04-21T08:07:50.772Z,11.00
2023-04-21T08:10:18.865Z,10.77
2023-04-21T08:12:46.978Z,11.07
2023-04-21T08:15:15.097Z,11.70
2023-04-21T08:17:44.650Z,10.20
2023-04-21T08:20:13.564Z,12.27
2023-04-21T08:22:41.747Z,10.83
2023-04-21T08:25:10.063Z,10.00
2023-04-21T08:27:39.486Z,12.50
2023-04-21T08:30:08.690Z,11.73
2023-04-21T08:32:36.815Z,14.80
2023-04-21T08:35:07.003Z,14.00
2023-04-21T08:37:36.951Z,11.70
2023-04-21T08:40:05.323Z,11.40
2023-04-21T08:42:33.493Z,11.23
2023-04-21T08:45:01.589Z,12.33
2023-04-21T08:47:29.847Z,10.77
2023-04-21T08:49:57.981Z,10.20
2023-04-21T08:52:51.831Z,13.90
2023-04-21T08:55:19.968Z,11.20
2023-04-21T08:57:48.112Z,13.63
2023-04-21T09:00:16.952Z,11.03
2023-04-21T09:03:00.269Z,10.20
2023-04-21T09:05:31.080Z,12.13
2023-04-21T09:08:10.779Z,11.73
2023-04-21T09:10:46.368Z,10.67
2023-04-21T09:13:14.940Z,10.33
2023-04-21T09:15:43.085Z,11.50
2023-04-21T09:18:15.074Z,10.73
2023-04-21T09:20:43.799Z,10.07
2023-04-21T09:23:13.364Z,10.83
2023-04-21T09:25:41.710Z,11.93
2023-04-21T09:28:10.124Z,11.27
2023-04-21T09:30:38.377Z,13.53
2023-04-21T09:33:20.148Z,11.17
2023-04-21T09:35:57.070Z,11.70
2023-04-21T09:38:26.591Z,16.70
2023-04-21T09:41:00.576Z,10.63
2023-04-21T09:43:31.363Z,9.70
2023-04-21T09:46:00.066Z,11.83
2023-04-21T09:48:29.499Z,12.80
2023-04-21T09:53:29.920Z,12.20
2023-04-21T09:55:58.573Z,11.17
2023-04-21T09:58:26.624Z,11.10
2023-04-21T10:00:54.733Z,12.93
2023-04-21T10:03:22.997Z,13.40
2023-04-21T10:05:51.531Z,9.67
2023-04-21T10:08:19.867Z,12.10
2023-04-21T10:10:49.630Z,9.87
2023-04-21T10:13:18.791Z,11.17
2023-04-21T10:15:54.427Z,11.40
2023-04-21T10:18:23.846Z,10.37
2023-04-21T10:20:55.480Z,11.50
2023-04-21T10:23:33.895Z,11.97
2023-04-21T10:26:11.498Z,13.00
2023-04-21T10:28:47.081Z,10.80
2023-04-21T10:31:19.675Z,12.90
2023-04-21T10:34:18.517Z,10.03
2023-04-21T10:37:09.832Z,11.17
2023-04-21T10:39:38.593Z,15.23
2023-04-21T10:42:34.686Z,11.73
2023-04-21T10:45:07.083Z,10.33
2023-04-21T10:47:38.136Z,10.23
2023-04-21T10:50:14.145Z,13.20
2023-04-21T10:52:45.508Z,12.47
2023-04-21T10:55:15.924Z,12.17
2023-04-21T10:57:46.291Z,12.30
2023-04-21T11:00:17.641Z,10.50
2023-04-21T11:03:06.438Z,10.23
2023-04-21T11:05:38.773Z,13.37
2023-04-21T11:08:12.731Z,11.80
2023-04-21T11:10:49.176Z,12.20
2023-04-21T11:13:18.604Z,13.03
2023-04-21T11:16:00.646Z,11.33
2023-04-21T11:18:37.962Z,11.90
2023-04-21T11:21:09.498Z,13.30
2023-04-21T11:23:40.447Z,12.40
2023-04-21T11:26:08.520Z,10.43
2023-04-21T11:28:38.144Z,13.27
2023-04-21T11:31:06.410Z,12.73
2023-04-21T11:33:37.669Z,12.27
2023-04-21T11:36:07.531Z,13.33
2023-04-21T11:38:40.159Z,12.17
2023-04-21T11:41:09.507Z,13.27
2023-04-21T11:43:39.319Z,11.03
2023-04-21T11:46:18.972Z,11.70
2023-04-21T11:48:47.309Z,11.70
2023-04-21T11:51:17.589Z,11.43
2023-04-21T11:53:48.785Z,13.33
2023-04-21T11:56:22.577Z,12.47
2023-04-21T11:58:53.670Z,12.67
2023-04-21T12:01:22.110Z,11.17
2023-04-21T12:03:54.550Z,10.77
2023-04-21T12:06:27.167Z,12.90
2023-04-21T12:08:58.754Z,12.40
2023-04-21T12:11:27.676Z,11.90
2023-04-21T12:13:58.006Z,14.73
2023-04-21T12:16:27.619Z,14.37
2023-04-21T12:18:55.732Z,12.77
2023-04-21T12:21:27.447Z,11.50
2023-04-21T12:23:55.607Z,11.90
2023-04-21T12:26:23.967Z,13.47
2023-04-21T12:28:52.045Z,14.33
2023-04-21T12:31:21.568Z,11.87
2023-04-21T12:33:49.700Z,12.00
2023-04-21T12:36:18.420Z,12.63
2023-04-21T12:38:46.529Z,12.00
2023-04-21T12:41:14.676Z,11.10
2023-04-21T12:43:45.879Z,11.73
2023-04-21T12:46:14.214Z,11.17
2023-04-21T12:48:44.213Z,11.03
2023-04-21T12:51:12.284Z,13.03
2023-04-21T12:53:40.417Z,11.33
2023-04-21T12:56:10.606Z,13.80
2023-04-21T12:58:38.992Z,12.27
2023-04-21T13:01:07.422Z,10.60
2023-04-21T13:03:36.008Z,13.90
2023-04-21T13:06:05.703Z,11.90
2023-04-21T13:08:33.958Z,11.10
2023-04-21T13:11:02.073Z,10.97
2023-04-21T13:13:30.158Z,12.33
2023-04-21T13:15:58.458Z,12.70
2023-04-21T13:18:26.516Z,12.00
2023-04-21T13:20:54.608Z,12.13
2023-04-21T13:23:24.037Z,14.73
2023-04-21T13:25:52.916Z,11.37
2023-04-21T13:28:21.068Z,10.60
2023-04-21T13:30:49.308Z,12.13
2023-04-21T13:33:17.739Z,12.17
2023-04-21T13:35:49.041Z,11.27
2023-04-21T13:38:17.186Z,11.43
2023-04-21T13:40:48.836Z,11.70
2023-04-21T13:43:17.592Z,12.20
2023-04-21T13:45:46.182Z,11.33
2023-04-21T13:48:14.427Z,12.33
2023-04-21T13:50:42.572Z,12.30
2023-04-21T13:53:11.026Z,11.33
2023-04-21T13:55:39.139Z,12.30
2023-04-21T13:58:08.667Z,11.33
2023-04-21T14:00:36.753Z,11.30
2023-04-21T14:03:05.460Z,10.00
2023-04-21T14:05:34.275Z,11.80
2023-04-21T14:08:02.623Z,11.33
2023-04-21T14:10:31.240Z,12.20
2023-04-21T14:12:59.356Z,13.43
2023-04-21T14:15:28.746Z,11.07
2023-04-21T14:17:56.937Z,12.10
2023-04-21T14:20:25.004Z,10.87
2023-04-21T14:22:53.113Z,12.17
2023-04-21T14:25:21.305Z,15.10
2023-04-21T14:27:55.527Z,10.37
2023-04-21T14:30:23.696Z,12.37
2023-04-21T14:32:53.219Z,13.77
2023-04-21T14:35:21.825Z,10.37
2023-04-21T14:37:49.874Z,12.00
2023-04-21T14:40:17.935Z,11.77
2023-04-21T14:42:46.152Z,10.70
2023-04-21T14:45:14.172Z,13.13
2023-04-21T14:47:42.437Z,10.63
2023-04-21T14:50:12.349Z,11.90
2023-04-21T14:52:40.658Z,11.93
2023-04-21T14:55:09.566Z,11.03
2023-04-21T14:57:37.751Z,11.00
2023-04-21T15:00:20.949Z,10.50
2023-04-21T15:02:49.112Z,11.83
2023-04-21T15:05:18.926Z,11.97
2023-04-21T15:07:47.065Z,11.90
2023-04-21T15:10:15.159Z,10.20
2023-04-21T15:12:44.092Z,12.23
2023-04-21T15:15:12.974Z,10.40
2023-04-21T15:17:41.140Z,11.47
2023-04-21T15:20:11.179Z,9.33
2023-04-21T15:22:41.246Z,10.77
2023-04-21T15:25:10.192Z,11.77
2023-04-21T15:27:38.329Z,9.80
2023-04-21T15:30:07.364Z,9.60
2023-04-21T15:32:41.423Z,9.97
2023-04-21T15:35:10.210Z,10.30
2023-04-21T15:37:38.335Z,8.40
2023-04-21T15:40:09.751Z,8.90
2023-04-21T15:42:37.911Z,8.70
2023-04-21T15:45:06.582Z,10.17
2023-04-21T15:47:34.684Z,9.23
2023-04-21T15:50:02.779Z,10.37
2023-04-21T15:52:30.954Z,11.23
2023-04-21T15:54:59.037Z,10.80
2023-04-21T15:57:29.755Z,9.47
2023-04-21T15:59:57.978Z,9.30
2023-04-21T16:02:26.279Z,10.70
2023-04-21T16:04:54.692Z,9.73
2023-04-21T16:07:23.688Z,11.47
2023-04-21T16:09:51.885Z,9.23
2023-04-21T16:12:20.033Z,9.73
2023-04-21T16:14:57.670Z,10.00
2023-04-21T16:17:32.080Z,10.60
2023-04-21T16:20:00.363Z,12.23
2023-04-21T16:22:28.991Z,11.70
2023-04-21T16:24:58.692Z,10.57
2023-04-21T16:27:26.930Z,10.30
2023-04-21T16:29:56.491Z,10.70
2023-04-21T16:32:24.776Z,9.87
2023-04-21T16:34:53.083Z,10.97
2023-04-21T16:37:21.200Z,10.43
2023-04-21T16:39:49.288Z,10.03
2023-04-21T16:42:17.384Z,11.00
2023-04-21T16:45:01.670Z,10.30
2023-04-21T16:47:30.073Z,11.23
2023-04-21T16:49:58.462Z,11.07
2023-04-21T16:52:27.552Z,25.00
2023-04-21T16:54:55.596Z,16.60
2023-04-21T16:57:25.206Z,10.33
2023-04-21T16:59:59.314Z,9.80
2023-04-21T17:02:27.527Z,11.90
2023-04-21T17:04:55.688Z,12.50
2023-04-21T17:07:23.800Z,10.67
2023-04-21T17:09:51.995Z,10.97
2023-04-21T17:12:20.079Z,9.20
2023-04-21T17:14:50.540Z,11.43
2023-04-21T17:17:20.060Z,10.80
2023-04-21T17:19:48.354Z,12.47
2023-04-21T17:22:16.541Z,11.43
2023-04-21T17:27:19.612Z,9.30
2023-04-21T17:29:47.683Z,10.77
2023-04-21T17:32:15.873Z,10.93
2023-04-21T17:34:45.450Z,10.57
2023-04-21T17:37:13.929Z,12.77
2023-04-21T17:39:42.024Z,12.10
2023-04-21T17:42:10.140Z,10.33
2023-04-21T17:44:40.113Z,12.17
2023-04-21T17:47:11.524Z,12.83
2023-04-21T17:49:39.611Z,10.23
2023-04-21T17:52:09.066Z,11.17
2023-04-21T17:54:37.679Z,10.33
2023-04-21T17:57:06.772Z,9.20
2023-04-21T17:59:35.010Z,13.23
2023-04-21T18:02:03.207Z,12.43
2023-04-21T18:04:33.956Z,11.07
2023-04-21T18:07:02.161Z,9.33
2023-04-21T18:09:31.801Z,10.63
2023-04-21T18:12:00.042Z,9.50
2023-04-21T18:14:28.627Z,9.50
2023-04-21T18:16:56.787Z,9.00
2023-04-21T18:19:24.850Z,12.90
2023-04-21T18:21:52.942Z,9.03
2023-04-21T18:24:21.031Z,9.07
2023-04-21T18:26:51.346Z,14.80
2023-04-21T18:29:20.036Z,10.17
2023-04-21T18:31:48.173Z,9.00
2023-04-21T18:34:16.628Z,14.37
2023-04-21T18:36:44.784Z,10.73
2023-04-21T18:39:12.846Z,9.50
2023-04-21T18:41:40.967Z,11.27
2023-04-21T18:44:10.617Z,11.23
2023-04-21T18:46:39.289Z,11.60
2023-04-21T18:49:07.465Z,11.10
2023-04-21T18:51:36.030Z,10.90
2023-04-21T18:54:04.907Z,11.10
2023-04-21T18:56:33.610Z,11.60
2023-04-21T18:59:01.727Z,11.63
2023-04-21T19:01:31.216Z,9.77
2023-04-21T19:03:59.848Z,10.60
2023-04-21T19:06:29.318Z,11.70
2023-04-21T19:08:58.013Z,10.30
2023-04-21T19:11:26.152Z,10.47
2023-04-21T19:13:54.345Z,9.83
2023-04-21T19:16:22.454Z,10.37
2023-04-21T19:18:52.774Z,9.87
2023-04-21T19:21:20.834Z,9.00
2023-04-21T19:23:51.317Z,10.50
2023-04-21T19:26:21.793Z,9.80
2023-04-21T19:28:49.964Z,8.93
2023-04-21T19:31:23.368Z,9.40
2023-04-21T19:33:52.834Z,9.83
2023-04-21T19:36:20.856Z,9.77
2023-04-21T19:38:49.758Z,8.20
2023-04-21T19:41:17.865Z,9.50
2023-04-21T19:43:45.951Z,10.83
2023-04-21T19:46:14.424Z,11.80
2023-04-21T19:48:42.797Z,9.73
2023-04-21T19:51:12.325Z,10.23
2023-04-21T19:53:40.315Z,9.80
2023-04-21T19:56:08.396Z,11.07
2023-04-21T19:58:40.887Z,9.80
2023-04-21T20:01:09.668Z,9.90
2023-04-21T20:03:38.235Z,10.77
2023-04-21T20:06:07.102Z,9.10
2023-04-21T20:08:36.975Z,9.60
2023-04-21T20:11:05.057Z,11.07
2023-04-21T20:13:33.089Z,10.37
2023-04-21T20:16:01.201Z,9.10
2023-04-21T20:18:29.324Z,9.27
2023-04-21T20:20:57.546Z,9.43
2023-04-21T20:23:25.671Z,9.60
2023-04-21T20:25:55.185Z,10.83
2023-04-21T20:28:23.227Z,11.20
2023-04-21T20:30:51.294Z,10.73
2023-04-21T20:33:19.352Z,8.90
2023-04-21T20:35:47.436Z,10.47
2023-04-21T20:38:16.030Z,9.63
2023-04-21T20:40:44.146Z,10.83
2023-04-21T20:43:15.215Z,10.83
2023-04-21T20:45:43.777Z,8.43
2023-04-21T20:48:11.854Z,9.80
2023-04-21T20:50:39.975Z,10.47
2023-04-21T20:53:08.515Z,8.40
2023-04-21T20:55:36.569Z,9.20
2023-04-21T20:58:04.987Z,11.83
2023-04-21T21:00:35.141Z,9.10
2023-04-21T21:03:04.021Z,10.40
2023-04-21T21:05:34.161Z,7.87
2023-04-21T21:08:02.257Z,7.90
2023-04-21T21:10:30.287Z,9.87
2023-04-21T21:12:59.770Z,10.47
2023-04-21T21:15:28.047Z,9.40
2023-04-21T21:17:57.591Z,7.47
2023-04-21T21:20:25.849Z,8.80
2023-04-21T21:22:54.132Z,7.10
2023-04-21T21:25:22.285Z,8.20
2023-04-21T21:27:50.406Z,7.00
2023-04-21T21:30:18.500Z,6.87
2023-04-21T21:32:47.697Z,8.23
2023-04-21T21:35:17.363Z,7.03
2023-04-21T21:37:45.558Z,8.00
2023-04-21T21:40:14.034Z,7.27
2023-04-21T21:42:42.136Z,8.07
2023-04-21T21:45:11.507Z,7.20
2023-04-21T21:47:41.897Z,6.60
2023-04-21T21:50:12.406Z,6.40
2023-04-21T21:52:42.056Z,6.63
2023-04-21T21:55:10.719Z,6.93
2023-04-21T21:57:38.862Z,6.30
2023-04-21T22:00:08.608Z,7.13
2023-04-21T22:02:36.830Z,7.47
2023-04-21T22:05:06.268Z,7.00
2023-04-21T22:07:35.462Z,6.27
2023-04-21T22:10:05.200Z,5.93
2023-04-21T22:12:33.419Z,6.00
2023-04-21T22:15:01.500Z,6.47
2023-04-21T22:17:30.063Z,7.10
2023-04-21T22:19:58.247Z,6.27
2023-04-21T22:22:26.333Z,6.87
2023-04-21T22:24:54.389Z,5.60
2023-04-21T22:27:23.869Z,6.23
2023-04-21T22:29:52.533Z,5.50
2023-04-21T22:32:20.616Z,5.67
2023-04-21T22:34:48.722Z,5.47
2023-04-21T22:37:16.855Z,5.73
2023-04-21T22:39:45.917Z,5.80
2023-04-21T22:42:13.997Z,6.40
2023-04-21T22:44:43.798Z,5.57
2023-04-21T22:47:12.188Z,5.43
2023-04-21T22:49:40.589Z,5.77
2023-04-21T22:52:09.029Z,6.60
2023-04-21T22:54:37.127Z,5.40
2023-04-21T22:57:05.498Z,6.00
2023-04-21T22:59:33.606Z,5.30
2023-04-21T23:02:05.503Z,5.57
2023-04-21T23:04:35.240Z,4.70
2023-04-21T23:07:03.526Z,4.87
2023-04-21T23:09:31.587Z,5.30
2023-04-21T23:11:59.701Z,5.57
2023-04-21T23:14:27.781Z,5.13
2023-04-21T23:16:56.006Z,5.40
2023-04-21T23:19:25.603Z,7.40
2023-04-21T23:21:53.682Z,5.20
2023-04-21T23:24:21.741Z,5.50
2023-04-21T23:26:49.822Z,5.23
2023-04-21T23:29:18.538Z,5.70
2023-04-21T23:31:46.648Z,6.00
2023-04-21T23:34:24.161Z,4.60
2023-04-21T23:36:53.552Z,5.30
2023-04-21T23:39:22.463Z,4.53
2023-04-21T23:41:50.567Z,4.93
2023-04-21T23:44:18.640Z,4.70
2023-04-21T23:46:46.751Z,4.70
2023-04-21T23:49:14.898Z,4.80
2023-04-21T23:51:42.969Z,4.90
2023-04-21T23:54:12.442Z,4.33
2023-04-21T23:56:40.531Z,4.73
2023-04-21T23:59:08.619Z,4.70
